今日のしぞ~か空港 (2014/10/29)

まだ少し太陽は高いところだったけど雲がかかってなんとか撮れるくらいになった。JH147のときは立ち位置失敗でかすりもしなかった。難しい。このままだとJH147のヒットはあと数日?NH1261はこれからかな。(500mm)









ロケットの煙みたいなコントレール。(300mm)
IMG_4657_20141030003751932.jpg







あれ?また遅刻ですか。もうとっくに日没ですよ~(300mm)
IMG_4682_20141030003753ca0.jpg







左側はちょろっとビロロ~ン。参考までに直近のMETARを。ん~、わかんねー。(300mm)
290800Z 21003KT 9999 FEW025 16/10 Q1023 RMK 1CU025 A3023=
IMG_4685.jpg








GSはたま~~~~~にくるヤツだった。(300mm)
IMG_4735.jpg








せっかくなんで上がりも。んー、ヘリ邪魔!(500mmx1.4テレ)
IMG_4747.jpg








久しぶりにサンヨン使ったけど、夜景には不向きだね。ゴースト出まくり。(300mm)
IMG_4784_20141030004125209.jpg







まぁ、なかなかMUの夜景は撮れないから撮れるときに撮っておかなきゃね。でも昔に比べたら撮る機会増えた?w(300mm)
IMG_4872.jpg








ゴーヨンもテレコンかますとゴースト出やすい。そもそも開放で撮るなって話ですよね。がっちりした三脚があればなぁ~(500mmx1.4テレ)
IMG_4926.jpg








CIも冬ダイヤで少し早い時間になったから夜な夜な練習はやり易くなりましたね。でも寒いか~(300mm)
IMG_5000_20141030004129200.jpg
スポンサーサイト
プロフィール

nojiken

Author:nojiken

最新記事
最新コメント
月別アーカイブ
カテゴリ
カレンダー
09 | 2014/10 | 11
- - - 1 2 3 4
5 6 7 8 9 10 11
12 13 14 15 16 17 18
19 20 21 22 23 24 25
26 27 28 29 30 31 -
カウンター
検索フォーム
RSSリンクの表示
リンク